sensor_id;sensor_type;location;lat;lon;timestamp;P1;durP1;ratioP1;P2;durP2;ratioP2
33160;SDS011;19522;45.656;11.302;2023-04-07T00:01:31;22.45;;;15.80;;
33160;SDS011;19522;45.656;11.302;2023-04-07T00:03:57;21.27;;;14.65;;
33160;SDS011;19522;45.656;11.302;2023-04-07T00:06:22;19.10;;;13.45;;
33160;SDS011;19522;45.656;11.302;2023-04-07T00:08:48;21.92;;;14.45;;
33160;SDS011;19522;45.656;11.302;2023-04-07T00:11:13;20.15;;;13.93;;
33160;SDS011;19522;45.656;11.302;2023-04-07T00:13:39;24.20;;;14.90;;
33160;SDS011;19522;45.656;11.302;2023-04-07T00:16:04;17.42;;;13.25;;
33160;SDS011;19522;45.656;11.302;2023-04-07T00:18:30;23.75;;;14.98;;
33160;SDS011;19522;45.656;11.302;2023-04-07T00:20:55;25.02;;;15.07;;
33160;SDS011;19522;45.656;11.302;2023-04-07T00:23:21;19.67;;;14.65;;
33160;SDS011;19522;45.656;11.302;2023-04-07T00:25:47;20.88;;;14.60;;
33160;SDS011;19522;45.656;11.302;2023-04-07T00:28:13;23.85;;;13.85;;
33160;SDS011;19522;45.656;11.302;2023-04-07T00:30:38;21.55;;;14.40;;
33160;SDS011;19522;45.656;11.302;2023-04-07T00:33:04;20.60;;;14.07;;
33160;SDS011;19522;45.656;11.302;2023-04-07T00:35:29;23.33;;;14.52;;
33160;SDS011;19522;45.656;11.302;2023-04-07T00:37:55;22.58;;;14.35;;
33160;SDS011;19522;45.656;11.302;2023-04-07T00:40:21;18.67;;;13.23;;
33160;SDS011;19522;45.656;11.302;2023-04-07T00:42:47;18.70;;;13.70;;
33160;SDS011;19522;45.656;11.302;2023-04-07T00:45:12;19.83;;;14.43;;
33160;SDS011;19522;45.656;11.302;2023-04-07T00:47:38;21.95;;;13.75;;
33160;SDS011;19522;45.656;11.302;2023-04-07T00:50:03;20.70;;;14.30;;
33160;SDS011;19522;45.656;11.302;2023-04-07T00:52:31;21.08;;;14.20;;
33160;SDS011;19522;45.656;11.302;2023-04-07T00:54:57;23.00;;;14.95;;
33160;SDS011;19522;45.656;11.302;2023-04-07T00:57:24;20.50;;;14.07;;
33160;SDS011;19522;45.656;11.302;2023-04-07T00:59:53;21.10;;;14.07;;
33160;SDS011;19522;45.656;11.302;2023-04-07T01:02:25;19.85;;;13.30;;
33160;SDS011;19522;45.656;11.302;2023-04-07T01:07:28;23.02;;;14.57;;
33160;SDS011;19522;45.656;11.302;2023-04-07T01:10:09;18.38;;;13.40;;
33160;SDS011;19522;45.656;11.302;2023-04-07T01:15:46;19.00;;;13.70;;
33160;SDS011;19522;45.656;11.302;2023-04-07T01:18:20;19.48;;;14.10;;
33160;SDS011;19522;45.656;11.302;2023-04-07T01:20:49;23.58;;;14.30;;
33160;SDS011;19522;45.656;11.302;2023-04-07T01:23:20;22.17;;;14.65;;
33160;SDS011;19522;45.656;11.302;2023-04-07T01:29:07;18.40;;;12.80;;
33160;SDS011;19522;45.656;11.302;2023-04-07T01:31:53;23.67;;;13.77;;
33160;SDS011;19522;45.656;11.302;2023-04-07T01:34:21;21.23;;;14.10;;
33160;SDS011;19522;45.656;11.302;2023-04-07T01:36:50;19.77;;;12.75;;
33160;SDS011;19522;45.656;11.302;2023-04-07T01:39:16;18.90;;;13.07;;
33160;SDS011;19522;45.656;11.302;2023-04-07T01:41:42;17.25;;;12.65;;
33160;SDS011;19522;45.656;11.302;2023-04-07T01:44:09;19.50;;;13.32;;
33160;SDS011;19522;45.656;11.302;2023-04-07T01:46:35;18.60;;;12.95;;
33160;SDS011;19522;45.656;11.302;2023-04-07T01:49:01;19.75;;;13.38;;
33160;SDS011;19522;45.656;11.302;2023-04-07T01:51:29;19.02;;;13.75;;
33160;SDS011;19522;45.656;11.302;2023-04-07T01:53:56;20.60;;;13.48;;
33160;SDS011;19522;45.656;11.302;2023-04-07T01:56:24;18.42;;;12.10;;
33160;SDS011;19522;45.656;11.302;2023-04-07T01:58:50;18.95;;;13.02;;
33160;SDS011;19522;45.656;11.302;2023-04-07T02:01:15;16.95;;;12.90;;
33160;SDS011;19522;45.656;11.302;2023-04-07T02:03:51;20.27;;;13.63;;
33160;SDS011;19522;45.656;11.302;2023-04-07T02:06:27;18.98;;;13.63;;
33160;SDS011;19522;45.656;11.302;2023-04-07T02:08:58;18.27;;;12.68;;
33160;SDS011;19522;45.656;11.302;2023-04-07T02:11:31;19.80;;;13.70;;
33160;SDS011;19522;45.656;11.302;2023-04-07T02:14:00;19.65;;;13.70;;
33160;SDS011;19522;45.656;11.302;2023-04-07T02:16:28;22.58;;;13.85;;
33160;SDS011;19522;45.656;11.302;2023-04-07T02:18:55;20.90;;;13.32;;
33160;SDS011;19522;45.656;11.302;2023-04-07T02:21:22;19.88;;;13.35;;
33160;SDS011;19522;45.656;11.302;2023-04-07T02:23:48;22.55;;;12.38;;
33160;SDS011;19522;45.656;11.302;2023-04-07T02:26:14;19.13;;;13.88;;
33160;SDS011;19522;45.656;11.302;2023-04-07T02:28:40;19.25;;;13.13;;
33160;SDS011;19522;45.656;11.302;2023-04-07T02:31:05;20.90;;;13.32;;
33160;SDS011;19522;45.656;11.302;2023-04-07T02:33:31;23.65;;;13.63;;
33160;SDS011;19522;45.656;11.302;2023-04-07T02:35:56;18.92;;;12.73;;
33160;SDS011;19522;45.656;11.302;2023-04-07T02:38:22;18.70;;;12.85;;
33160;SDS011;19522;45.656;11.302;2023-04-07T02:40:48;19.25;;;13.27;;
33160;SDS011;19522;45.656;11.302;2023-04-07T02:43:13;17.38;;;13.25;;
33160;SDS011;19522;45.656;11.302;2023-04-07T02:45:39;22.17;;;15.13;;
33160;SDS011;19522;45.656;11.302;2023-04-07T02:48:04;18.73;;;12.88;;
33160;SDS011;19522;45.656;11.302;2023-04-07T02:50:30;18.35;;;12.90;;
33160;SDS011;19522;45.656;11.302;2023-04-07T02:52:55;20.05;;;13.10;;
33160;SDS011;19522;45.656;11.302;2023-04-07T02:55:21;18.02;;;12.65;;
33160;SDS011;19522;45.656;11.302;2023-04-07T02:57:46;22.10;;;13.57;;
33160;SDS011;19522;45.656;11.302;2023-04-07T03:00:12;17.23;;;12.88;;
33160;SDS011;19522;45.656;11.302;2023-04-07T03:02:39;19.60;;;13.23;;
33160;SDS011;19522;45.656;11.302;2023-04-07T03:05:05;21.27;;;13.32;;
33160;SDS011;19522;45.656;11.302;2023-04-07T03:07:31;18.30;;;12.93;;
33160;SDS011;19522;45.656;11.302;2023-04-07T03:09:56;20.13;;;14.23;;
33160;SDS011;19522;45.656;11.302;2023-04-07T03:12:22;20.20;;;13.88;;
33160;SDS011;19522;45.656;11.302;2023-04-07T03:14:47;21.05;;;13.93;;
33160;SDS011;19522;45.656;11.302;2023-04-07T03:17:13;20.90;;;13.15;;
33160;SDS011;19522;45.656;11.302;2023-04-07T03:19:39;18.48;;;13.52;;
33160;SDS011;19522;45.656;11.302;2023-04-07T03:22:05;21.95;;;14.07;;
33160;SDS011;19522;45.656;11.302;2023-04-07T03:24:30;20.02;;;13.98;;
33160;SDS011;19522;45.656;11.302;2023-04-07T03:26:56;19.58;;;13.98;;
33160;SDS011;19522;45.656;11.302;2023-04-07T03:29:21;18.50;;;13.27;;
33160;SDS011;19522;45.656;11.302;2023-04-07T03:31:47;18.63;;;12.90;;
33160;SDS011;19522;45.656;11.302;2023-04-07T03:34:12;18.50;;;13.13;;
33160;SDS011;19522;45.656;11.302;2023-04-07T03:36:38;16.42;;;11.93;;
33160;SDS011;19522;45.656;11.302;2023-04-07T03:39:04;17.60;;;12.68;;
33160;SDS011;19522;45.656;11.302;2023-04-07T03:41:29;18.73;;;13.82;;
33160;SDS011;19522;45.656;11.302;2023-04-07T03:43:55;22.25;;;13.88;;
33160;SDS011;19522;45.656;11.302;2023-04-07T03:46:21;19.23;;;13.38;;
33160;SDS011;19522;45.656;11.302;2023-04-07T03:48:46;16.77;;;12.55;;
33160;SDS011;19522;45.656;11.302;2023-04-07T03:51:12;16.98;;;12.77;;
33160;SDS011;19522;45.656;11.302;2023-04-07T03:53:37;22.10;;;13.68;;
33160;SDS011;19522;45.656;11.302;2023-04-07T03:56:03;18.73;;;12.85;;
33160;SDS011;19522;45.656;11.302;2023-04-07T03:58:29;20.33;;;14.05;;
33160;SDS011;19522;45.656;11.302;2023-04-07T04:00:54;19.27;;;12.63;;
33160;SDS011;19522;45.656;11.302;2023-04-07T04:03:20;20.75;;;13.63;;
33160;SDS011;19522;45.656;11.302;2023-04-07T04:05:45;18.92;;;13.50;;
33160;SDS011;19522;45.656;11.302;2023-04-07T04:08:11;19.80;;;13.40;;
33160;SDS011;19522;45.656;11.302;2023-04-07T04:10:36;20.27;;;13.35;;
33160;SDS011;19522;45.656;11.302;2023-04-07T04:13:02;23.77;;;15.93;;
33160;SDS011;19522;45.656;11.302;2023-04-07T04:15:31;22.80;;;14.02;;
33160;SDS011;19522;45.656;11.302;2023-04-07T04:17:56;21.00;;;14.25;;
33160;SDS011;19522;45.656;11.302;2023-04-07T04:20:22;19.50;;;13.27;;
33160;SDS011;19522;45.656;11.302;2023-04-07T04:22:47;19.88;;;12.95;;
33160;SDS011;19522;45.656;11.302;2023-04-07T04:25:13;20.90;;;12.95;;
33160;SDS011;19522;45.656;11.302;2023-04-07T04:27:40;21.63;;;13.93;;
33160;SDS011;19522;45.656;11.302;2023-04-07T04:30:06;19.00;;;12.98;;
33160;SDS011;19522;45.656;11.302;2023-04-07T04:32:32;23.17;;;13.93;;
33160;SDS011;19522;45.656;11.302;2023-04-07T04:34:58;21.48;;;13.65;;
33160;SDS011;19522;45.656;11.302;2023-04-07T04:37:24;20.20;;;13.48;;
33160;SDS011;19522;45.656;11.302;2023-04-07T04:39:50;18.58;;;14.13;;
33160;SDS011;19522;45.656;11.302;2023-04-07T04:42:16;19.67;;;13.20;;
33160;SDS011;19522;45.656;11.302;2023-04-07T04:44:41;20.30;;;13.13;;
33160;SDS011;19522;45.656;11.302;2023-04-07T04:47:07;21.95;;;13.40;;
33160;SDS011;19522;45.656;11.302;2023-04-07T04:49:32;19.73;;;13.68;;
33160;SDS011;19522;45.656;11.302;2023-04-07T04:51:58;18.65;;;13.45;;
33160;SDS011;19522;45.656;11.302;2023-04-07T04:54:23;18.27;;;13.52;;
33160;SDS011;19522;45.656;11.302;2023-04-07T04:56:49;18.25;;;13.38;;
33160;SDS011;19522;45.656;11.302;2023-04-07T04:59:15;20.10;;;13.90;;
33160;SDS011;19522;45.656;11.302;2023-04-07T05:01:40;20.77;;;13.65;;
33160;SDS011;19522;45.656;11.302;2023-04-07T05:04:06;18.88;;;13.98;;
33160;SDS011;19522;45.656;11.302;2023-04-07T05:06:33;20.63;;;14.88;;
33160;SDS011;19522;45.656;11.302;2023-04-07T05:08:58;20.40;;;15.38;;
33160;SDS011;19522;45.656;11.302;2023-04-07T05:11:24;27.58;;;15.38;;
33160;SDS011;19522;45.656;11.302;2023-04-07T05:13:49;25.92;;;16.55;;
33160;SDS011;19522;45.656;11.302;2023-04-07T05:16:15;23.05;;;15.55;;
33160;SDS011;19522;45.656;11.302;2023-04-07T05:18:40;23.30;;;15.48;;
33160;SDS011;19522;45.656;11.302;2023-04-07T05:21:06;22.60;;;15.25;;
33160;SDS011;19522;45.656;11.302;2023-04-07T05:23:31;20.85;;;15.02;;
33160;SDS011;19522;45.656;11.302;2023-04-07T05:25:57;21.33;;;15.00;;
33160;SDS011;19522;45.656;11.302;2023-04-07T05:28:22;21.67;;;14.63;;
33160;SDS011;19522;45.656;11.302;2023-04-07T05:30:49;18.70;;;14.65;;
33160;SDS011;19522;45.656;11.302;2023-04-07T05:33:14;25.85;;;16.02;;
33160;SDS011;19522;45.656;11.302;2023-04-07T05:35:40;21.85;;;15.40;;
33160;SDS011;19522;45.656;11.302;2023-04-07T05:38:08;22.17;;;15.68;;
33160;SDS011;19522;45.656;11.302;2023-04-07T05:40:34;23.35;;;15.75;;
33160;SDS011;19522;45.656;11.302;2023-04-07T05:43:00;23.17;;;16.40;;
33160;SDS011;19522;45.656;11.302;2023-04-07T05:45:27;24.58;;;15.07;;
33160;SDS011;19522;45.656;11.302;2023-04-07T05:47:53;25.58;;;16.52;;
33160;SDS011;19522;45.656;11.302;2023-04-07T05:50:18;23.73;;;15.13;;
33160;SDS011;19522;45.656;11.302;2023-04-07T05:52:44;22.75;;;15.43;;
33160;SDS011;19522;45.656;11.302;2023-04-07T05:55:10;23.90;;;16.80;;
33160;SDS011;19522;45.656;11.302;2023-04-07T05:57:36;24.02;;;16.48;;
33160;SDS011;19522;45.656;11.302;2023-04-07T06:00:02;23.65;;;15.57;;
33160;SDS011;19522;45.656;11.302;2023-04-07T06:02:28;24.75;;;17.02;;
33160;SDS011;19522;45.656;11.302;2023-04-07T06:04:54;24.77;;;15.82;;
33160;SDS011;19522;45.656;11.302;2023-04-07T06:07:20;23.60;;;15.70;;
33160;SDS011;19522;45.656;11.302;2023-04-07T06:09:46;22.35;;;15.65;;
33160;SDS011;19522;45.656;11.302;2023-04-07T06:12:11;21.60;;;15.40;;
33160;SDS011;19522;45.656;11.302;2023-04-07T06:14:37;25.23;;;16.80;;
33160;SDS011;19522;45.656;11.302;2023-04-07T06:17:03;22.73;;;15.95;;
33160;SDS011;19522;45.656;11.302;2023-04-07T06:19:29;23.50;;;16.45;;
33160;SDS011;19522;45.656;11.302;2023-04-07T06:21:54;26.90;;;18.13;;
33160;SDS011;19522;45.656;11.302;2023-04-07T06:24:20;38.47;;;25.85;;
33160;SDS011;19522;45.656;11.302;2023-04-07T06:26:47;25.70;;;17.13;;
33160;SDS011;19522;45.656;11.302;2023-04-07T06:29:12;21.52;;;15.40;;
33160;SDS011;19522;45.656;11.302;2023-04-07T06:31:38;20.45;;;14.30;;
33160;SDS011;19522;45.656;11.302;2023-04-07T06:34:04;21.67;;;15.90;;
33160;SDS011;19522;45.656;11.302;2023-04-07T06:36:30;23.45;;;16.13;;
33160;SDS011;19522;45.656;11.302;2023-04-07T06:38:57;21.13;;;15.30;;
33160;SDS011;19522;45.656;11.302;2023-04-07T06:41:22;18.83;;;13.68;;
33160;SDS011;19522;45.656;11.302;2023-04-07T06:43:48;20.67;;;14.55;;
33160;SDS011;19522;45.656;11.302;2023-04-07T06:46:15;21.15;;;14.20;;
33160;SDS011;19522;45.656;11.302;2023-04-07T06:48:41;19.23;;;13.65;;
33160;SDS011;19522;45.656;11.302;2023-04-07T06:51:07;21.10;;;14.18;;
33160;SDS011;19522;45.656;11.302;2023-04-07T06:53:32;27.55;;;19.05;;
33160;SDS011;19522;45.656;11.302;2023-04-07T06:56:05;24.33;;;17.95;;
33160;SDS011;19522;45.656;11.302;2023-04-07T06:58:36;27.20;;;18.67;;
33160;SDS011;19522;45.656;11.302;2023-04-07T07:01:02;24.17;;;16.10;;
33160;SDS011;19522;45.656;11.302;2023-04-07T07:03:29;23.90;;;14.95;;
33160;SDS011;19522;45.656;11.302;2023-04-07T07:06:01;23.00;;;14.85;;
33160;SDS011;19522;45.656;11.302;2023-04-07T07:08:27;24.23;;;16.33;;
33160;SDS011;19522;45.656;11.302;2023-04-07T07:10:53;20.27;;;14.80;;
33160;SDS011;19522;45.656;11.302;2023-04-07T07:13:21;20.48;;;14.68;;
33160;SDS011;19522;45.656;11.302;2023-04-07T07:15:48;22.25;;;15.20;;
33160;SDS011;19522;45.656;11.302;2023-04-07T07:18:19;22.42;;;16.30;;
33160;SDS011;19522;45.656;11.302;2023-04-07T07:20:44;20.05;;;14.70;;
33160;SDS011;19522;45.656;11.302;2023-04-07T07:23:10;24.98;;;16.48;;
33160;SDS011;19522;45.656;11.302;2023-04-07T07:25:36;25.27;;;16.17;;
33160;SDS011;19522;45.656;11.302;2023-04-07T07:28:01;23.58;;;16.33;;
33160;SDS011;19522;45.656;11.302;2023-04-07T07:30:27;25.52;;;16.92;;
33160;SDS011;19522;45.656;11.302;2023-04-07T07:32:53;24.25;;;16.52;;
33160;SDS011;19522;45.656;11.302;2023-04-07T07:35:19;26.13;;;16.42;;
33160;SDS011;19522;45.656;11.302;2023-04-07T07:37:45;25.20;;;17.02;;
33160;SDS011;19522;45.656;11.302;2023-04-07T07:40:13;29.35;;;18.27;;
33160;SDS011;19522;45.656;11.302;2023-04-07T07:42:39;25.17;;;17.58;;
33160;SDS011;19522;45.656;11.302;2023-04-07T07:45:05;25.17;;;17.35;;
33160;SDS011;19522;45.656;11.302;2023-04-07T07:47:31;27.42;;;17.80;;
33160;SDS011;19522;45.656;11.302;2023-04-07T07:49:56;25.10;;;17.85;;
33160;SDS011;19522;45.656;11.302;2023-04-07T07:52:22;27.70;;;18.67;;
33160;SDS011;19522;45.656;11.302;2023-04-07T07:54:48;32.45;;;23.65;;
33160;SDS011;19522;45.656;11.302;2023-04-07T07:57:14;47.40;;;33.50;;
33160;SDS011;19522;45.656;11.302;2023-04-07T07:59:40;28.75;;;19.23;;
33160;SDS011;19522;45.656;11.302;2023-04-07T08:02:06;27.50;;;19.15;;
33160;SDS011;19522;45.656;11.302;2023-04-07T08:04:32;24.92;;;18.23;;
33160;SDS011;19522;45.656;11.302;2023-04-07T08:06:58;27.00;;;17.35;;
33160;SDS011;19522;45.656;11.302;2023-04-07T08:09:23;32.47;;;17.58;;
33160;SDS011;19522;45.656;11.302;2023-04-07T08:11:49;25.92;;;17.42;;
33160;SDS011;19522;45.656;11.302;2023-04-07T08:14:15;28.48;;;18.30;;
33160;SDS011;19522;45.656;11.302;2023-04-07T08:16:41;29.40;;;19.17;;
33160;SDS011;19522;45.656;11.302;2023-04-07T08:19:07;32.25;;;19.77;;
33160;SDS011;19522;45.656;11.302;2023-04-07T08:21:32;26.90;;;18.55;;
33160;SDS011;19522;45.656;11.302;2023-04-07T08:23:58;28.15;;;19.60;;
33160;SDS011;19522;45.656;11.302;2023-04-07T08:26:25;34.25;;;19.05;;
33160;SDS011;19522;45.656;11.302;2023-04-07T08:28:51;30.92;;;19.48;;
33160;SDS011;19522;45.656;11.302;2023-04-07T08:31:17;26.98;;;19.20;;
33160;SDS011;19522;45.656;11.302;2023-04-07T08:33:42;32.42;;;19.35;;
33160;SDS011;19522;45.656;11.302;2023-04-07T08:36:08;29.50;;;18.95;;
33160;SDS011;19522;45.656;11.302;2023-04-07T08:38:34;32.90;;;19.98;;
33160;SDS011;19522;45.656;11.302;2023-04-07T08:41:00;29.55;;;19.98;;
33160;SDS011;19522;45.656;11.302;2023-04-07T08:43:28;29.38;;;19.67;;
33160;SDS011;19522;45.656;11.302;2023-04-07T08:45:55;30.75;;;19.17;;
33160;SDS011;19522;45.656;11.302;2023-04-07T08:48:22;33.05;;;20.83;;
33160;SDS011;19522;45.656;11.302;2023-04-07T08:50:52;29.92;;;19.13;;
33160;SDS011;19522;45.656;11.302;2023-04-07T08:53:23;33.95;;;19.05;;
33160;SDS011;19522;45.656;11.302;2023-04-07T08:55:56;28.35;;;19.23;;
33160;SDS011;19522;45.656;11.302;2023-04-07T08:58:22;28.98;;;17.75;;
33160;SDS011;19522;45.656;11.302;2023-04-07T09:00:48;27.20;;;17.23;;
33160;SDS011;19522;45.656;11.302;2023-04-07T09:03:15;31.60;;;18.45;;
33160;SDS011;19522;45.656;11.302;2023-04-07T09:05:43;28.25;;;17.25;;
33160;SDS011;19522;45.656;11.302;2023-04-07T09:08:10;27.08;;;18.55;;
33160;SDS011;19522;45.656;11.302;2023-04-07T09:10:35;27.55;;;18.25;;
33160;SDS011;19522;45.656;11.302;2023-04-07T09:13:01;26.30;;;17.77;;
33160;SDS011;19522;45.656;11.302;2023-04-07T09:15:30;26.42;;;17.25;;
33160;SDS011;19522;45.656;11.302;2023-04-07T09:17:56;26.08;;;17.25;;
33160;SDS011;19522;45.656;11.302;2023-04-07T09:20:23;27.00;;;15.75;;
33160;SDS011;19522;45.656;11.302;2023-04-07T09:22:49;24.17;;;16.67;;
33160;SDS011;19522;45.656;11.302;2023-04-07T09:25:22;27.27;;;16.60;;
33160;SDS011;19522;45.656;11.302;2023-04-07T09:27:57;26.15;;;16.30;;
33160;SDS011;19522;45.656;11.302;2023-04-07T09:30:31;23.75;;;15.63;;
33160;SDS011;19522;45.656;11.302;2023-04-07T09:32:58;22.85;;;16.58;;
33160;SDS011;19522;45.656;11.302;2023-04-07T09:35:24;26.77;;;16.90;;
33160;SDS011;19522;45.656;11.302;2023-04-07T09:38:05;27.15;;;17.63;;
33160;SDS011;19522;45.656;11.302;2023-04-07T09:40:32;30.30;;;17.17;;
33160;SDS011;19522;45.656;11.302;2023-04-07T09:42:58;26.73;;;17.10;;
33160;SDS011;19522;45.656;11.302;2023-04-07T09:45:24;26.45;;;17.25;;
33160;SDS011;19522;45.656;11.302;2023-04-07T09:47:51;29.90;;;17.63;;
33160;SDS011;19522;45.656;11.302;2023-04-07T09:50:39;28.13;;;17.50;;
33160;SDS011;19522;45.656;11.302;2023-04-07T09:53:05;30.13;;;18.02;;
33160;SDS011;19522;45.656;11.302;2023-04-07T09:55:31;27.15;;;17.63;;
33160;SDS011;19522;45.656;11.302;2023-04-07T09:57:57;26.63;;;18.67;;
33160;SDS011;19522;45.656;11.302;2023-04-07T10:00:24;28.33;;;18.52;;
33160;SDS011;19522;45.656;11.302;2023-04-07T10:02:49;26.77;;;17.50;;
33160;SDS011;19522;45.656;11.302;2023-04-07T10:05:15;28.40;;;18.10;;
33160;SDS011;19522;45.656;11.302;2023-04-07T10:07:41;27.25;;;18.55;;
33160;SDS011;19522;45.656;11.302;2023-04-07T10:10:07;27.77;;;19.00;;
33160;SDS011;19522;45.656;11.302;2023-04-07T10:12:34;27.02;;;18.42;;
33160;SDS011;19522;45.656;11.302;2023-04-07T10:15:02;29.48;;;19.75;;
33160;SDS011;19522;45.656;11.302;2023-04-07T10:17:28;29.38;;;18.00;;
33160;SDS011;19522;45.656;11.302;2023-04-07T10:19:59;28.38;;;19.13;;
33160;SDS011;19522;45.656;11.302;2023-04-07T10:22:26;32.03;;;19.40;;
33160;SDS011;19522;45.656;11.302;2023-04-07T10:30:24;28.55;;;19.52;;
33160;SDS011;19522;45.656;11.302;2023-04-07T10:32:52;33.72;;;19.23;;
33160;SDS011;19522;45.656;11.302;2023-04-07T10:35:19;33.30;;;19.92;;
33160;SDS011;19522;45.656;11.302;2023-04-07T10:40:29;25.27;;;16.65;;
33160;SDS011;19522;45.656;11.302;2023-04-07T10:42:55;29.17;;;19.15;;
33160;SDS011;19522;45.656;11.302;2023-04-07T10:48:23;32.72;;;20.63;;
33160;SDS011;19522;45.656;11.302;2023-04-07T10:51:11;30.55;;;20.88;;
33160;SDS011;19522;45.656;11.302;2023-04-07T10:53:38;31.13;;;21.20;;
33160;SDS011;19522;45.656;11.302;2023-04-07T10:59:34;32.75;;;19.73;;
33160;SDS011;19522;45.656;11.302;2023-04-07T11:04:39;35.17;;;21.13;;
33160;SDS011;19522;45.656;11.302;2023-04-07T11:07:09;31.50;;;21.20;;
33160;SDS011;19522;45.656;11.302;2023-04-07T11:09:36;32.75;;;20.52;;
33160;SDS011;19522;45.656;11.302;2023-04-07T11:12:02;34.55;;;21.52;;
33160;SDS011;19522;45.656;11.302;2023-04-07T11:14:29;34.08;;;21.70;;
33160;SDS011;19522;45.656;11.302;2023-04-07T11:16:55;34.88;;;22.00;;
33160;SDS011;19522;45.656;11.302;2023-04-07T11:19:22;33.30;;;21.77;;
33160;SDS011;19522;45.656;11.302;2023-04-07T11:21:47;30.30;;;20.60;;
33160;SDS011;19522;45.656;11.302;2023-04-07T11:24:33;33.38;;;22.00;;
33160;SDS011;19522;45.656;11.302;2023-04-07T11:27:04;33.40;;;20.80;;
33160;SDS011;19522;45.656;11.302;2023-04-07T11:29:31;33.47;;;22.55;;
33160;SDS011;19522;45.656;11.302;2023-04-07T11:31:57;32.65;;;21.77;;
33160;SDS011;19522;45.656;11.302;2023-04-07T11:34:30;31.27;;;21.00;;
33160;SDS011;19522;45.656;11.302;2023-04-07T11:36:57;29.55;;;20.75;;
33160;SDS011;19522;45.656;11.302;2023-04-07T11:39:24;33.38;;;21.75;;
33160;SDS011;19522;45.656;11.302;2023-04-07T11:41:55;31.30;;;20.65;;
33160;SDS011;19522;45.656;11.302;2023-04-07T11:44:21;33.15;;;20.70;;
33160;SDS011;19522;45.656;11.302;2023-04-07T11:46:54;33.08;;;22.25;;
33160;SDS011;19522;45.656;11.302;2023-04-07T11:49:21;33.72;;;21.08;;
33160;SDS011;19522;45.656;11.302;2023-04-07T11:51:47;38.55;;;22.60;;
33160;SDS011;19522;45.656;11.302;2023-04-07T11:54:21;25.00;;;15.25;;
33160;SDS011;19522;45.656;11.302;2023-04-07T11:56:46;36.00;;;22.33;;
33160;SDS011;19522;45.656;11.302;2023-04-07T12:02:05;35.97;;;22.70;;
33160;SDS011;19522;45.656;11.302;2023-04-07T12:04:32;35.75;;;23.40;;
33160;SDS011;19522;45.656;11.302;2023-04-07T12:07:08;32.17;;;21.15;;
33160;SDS011;19522;45.656;11.302;2023-04-07T12:09:34;32.35;;;22.40;;
33160;SDS011;19522;45.656;11.302;2023-04-07T12:12:02;41.55;;;22.90;;
33160;SDS011;19522;45.656;11.302;2023-04-07T12:14:29;36.65;;;21.58;;
33160;SDS011;19522;45.656;11.302;2023-04-07T12:16:55;34.42;;;21.55;;
33160;SDS011;19522;45.656;11.302;2023-04-07T12:19:25;33.03;;;21.75;;
33160;SDS011;19522;45.656;11.302;2023-04-07T12:21:54;34.33;;;21.60;;
33160;SDS011;19522;45.656;11.302;2023-04-07T12:24:20;32.33;;;20.33;;
33160;SDS011;19522;45.656;11.302;2023-04-07T12:26:46;32.55;;;20.88;;
33160;SDS011;19522;45.656;11.302;2023-04-07T12:29:12;32.30;;;20.30;;
33160;SDS011;19522;45.656;11.302;2023-04-07T12:31:38;33.70;;;20.98;;
33160;SDS011;19522;45.656;11.302;2023-04-07T12:34:03;29.67;;;19.67;;
33160;SDS011;19522;45.656;11.302;2023-04-07T12:36:29;34.33;;;20.77;;
33160;SDS011;19522;45.656;11.302;2023-04-07T12:38:55;30.25;;;20.70;;
33160;SDS011;19522;45.656;11.302;2023-04-07T12:41:21;32.92;;;20.08;;
33160;SDS011;19522;45.656;11.302;2023-04-07T12:43:47;29.88;;;19.98;;
33160;SDS011;19522;45.656;11.302;2023-04-07T12:46:13;28.80;;;18.83;;
33160;SDS011;19522;45.656;11.302;2023-04-07T12:48:39;34.63;;;19.60;;
33160;SDS011;19522;45.656;11.302;2023-04-07T12:51:04;32.10;;;20.48;;
33160;SDS011;19522;45.656;11.302;2023-04-07T12:53:30;33.38;;;19.27;;
33160;SDS011;19522;45.656;11.302;2023-04-07T12:55:56;31.27;;;20.02;;
33160;SDS011;19522;45.656;11.302;2023-04-07T12:58:22;31.98;;;20.08;;
33160;SDS011;19522;45.656;11.302;2023-04-07T13:00:48;29.75;;;19.55;;
33160;SDS011;19522;45.656;11.302;2023-04-07T13:03:13;29.80;;;19.63;;
33160;SDS011;19522;45.656;11.302;2023-04-07T13:05:39;30.27;;;20.30;;
33160;SDS011;19522;45.656;11.302;2023-04-07T13:08:04;27.50;;;19.45;;
33160;SDS011;19522;45.656;11.302;2023-04-07T13:10:31;31.23;;;21.13;;
33160;SDS011;19522;45.656;11.302;2023-04-07T13:12:57;30.00;;;19.25;;
33160;SDS011;19522;45.656;11.302;2023-04-07T13:15:23;29.02;;;18.90;;
33160;SDS011;19522;45.656;11.302;2023-04-07T13:17:48;38.33;;;22.52;;
33160;SDS011;19522;45.656;11.302;2023-04-07T13:20:14;33.55;;;21.02;;
33160;SDS011;19522;45.656;11.302;2023-04-07T13:22:40;32.83;;;20.48;;
33160;SDS011;19522;45.656;11.302;2023-04-07T13:25:05;31.25;;;21.88;;
33160;SDS011;19522;45.656;11.302;2023-04-07T13:27:31;34.00;;;20.08;;
33160;SDS011;19522;45.656;11.302;2023-04-07T13:29:57;27.98;;;19.58;;
33160;SDS011;19522;45.656;11.302;2023-04-07T13:32:22;29.33;;;20.77;;
33160;SDS011;19522;45.656;11.302;2023-04-07T13:34:47;28.00;;;20.30;;
33160;SDS011;19522;45.656;11.302;2023-04-07T13:37:13;29.52;;;19.80;;
33160;SDS011;19522;45.656;11.302;2023-04-07T13:39:40;32.53;;;20.40;;
33160;SDS011;19522;45.656;11.302;2023-04-07T13:42:06;32.15;;;21.05;;
33160;SDS011;19522;45.656;11.302;2023-04-07T13:44:33;35.85;;;21.33;;
33160;SDS011;19522;45.656;11.302;2023-04-07T13:47:01;32.08;;;21.33;;
33160;SDS011;19522;45.656;11.302;2023-04-07T13:49:27;29.40;;;20.80;;
33160;SDS011;19522;45.656;11.302;2023-04-07T13:51:53;31.98;;;19.10;;
33160;SDS011;19522;45.656;11.302;2023-04-07T13:54:18;31.88;;;21.17;;
33160;SDS011;19522;45.656;11.302;2023-04-07T13:56:44;31.05;;;20.50;;
33160;SDS011;19522;45.656;11.302;2023-04-07T13:59:12;32.45;;;21.17;;
33160;SDS011;19522;45.656;11.302;2023-04-07T14:01:37;32.13;;;20.92;;
33160;SDS011;19522;45.656;11.302;2023-04-07T14:04:03;28.75;;;19.42;;
33160;SDS011;19522;45.656;11.302;2023-04-07T14:06:30;31.25;;;21.45;;
33160;SDS011;19522;45.656;11.302;2023-04-07T14:08:56;32.72;;;21.05;;
33160;SDS011;19522;45.656;11.302;2023-04-07T14:11:22;30.35;;;20.70;;
33160;SDS011;19522;45.656;11.302;2023-04-07T14:13:48;33.80;;;22.02;;
33160;SDS011;19522;45.656;11.302;2023-04-07T14:16:14;34.78;;;21.95;;
33160;SDS011;19522;45.656;11.302;2023-04-07T14:18:40;31.80;;;20.38;;
33160;SDS011;19522;45.656;11.302;2023-04-07T14:21:06;32.85;;;21.42;;
33160;SDS011;19522;45.656;11.302;2023-04-07T14:23:32;37.28;;;21.85;;
33160;SDS011;19522;45.656;11.302;2023-04-07T14:25:57;37.58;;;22.20;;
33160;SDS011;19522;45.656;11.302;2023-04-07T14:28:23;32.35;;;21.98;;
33160;SDS011;19522;45.656;11.302;2023-04-07T14:30:49;34.67;;;21.90;;
33160;SDS011;19522;45.656;11.302;2023-04-07T14:33:15;35.83;;;21.40;;
33160;SDS011;19522;45.656;11.302;2023-04-07T14:35:44;32.03;;;20.27;;